sensor_id;sensor_type;location;lat;lon;timestamp;pressure;altitude;pressure_sealevel;temperature;humidity
19576;BME280;41589;51.196;7.074;2023-11-19T00:02:11;98393.47;;;12.52;94.80
19576;BME280;41589;51.196;7.074;2023-11-19T00:07:12;98379.38;;;12.52;95.35
19576;BME280;41589;51.196;7.074;2023-11-19T00:12:14;98382.25;;;12.57;95.24
19576;BME280;41589;51.196;7.074;2023-11-19T00:17:14;98363.84;;;12.62;95.27
19576;BME280;41589;51.196;7.074;2023-11-19T00:22:14;98340.81;;;12.69;95.39
19576;BME280;41589;51.196;7.074;2023-11-19T00:27:15;98353.66;;;12.70;95.48
19576;BME280;41589;51.196;7.074;2023-11-19T00:32:17;98374.75;;;12.75;95.60
19576;BME280;41589;51.196;7.074;2023-11-19T00:37:18;98355.84;;;12.81;96.08
19576;BME280;41589;51.196;7.074;2023-11-19T00:42:19;98365.91;;;12.87;95.71
19576;BME280;41589;51.196;7.074;2023-11-19T00:47:20;98362.38;;;12.92;95.21
19576;BME280;41589;51.196;7.074;2023-11-19T00:52:21;98366.19;;;12.89;95.72
19576;BME280;41589;51.196;7.074;2023-11-19T00:57:22;98366.00;;;12.93;96.21
19576;BME280;41589;51.196;7.074;2023-11-19T01:02:24;98347.53;;;12.97;96.40
19576;BME280;41589;51.196;7.074;2023-11-19T01:07:56;98339.66;;;13.07;96.23
19576;BME280;41589;51.196;7.074;2023-11-19T01:12:56;98329.09;;;13.02;96.25
19576;BME280;41589;51.196;7.074;2023-11-19T01:17:57;98321.72;;;13.10;96.60
19576;BME280;41589;51.196;7.074;2023-11-19T01:22:57;98333.06;;;13.16;96.43
19576;BME280;41589;51.196;7.074;2023-11-19T01:27:58;98333.84;;;13.16;96.25
19576;BME280;41589;51.196;7.074;2023-11-19T01:32:58;98336.69;;;13.16;96.33
19576;BME280;41589;51.196;7.074;2023-11-19T01:37:59;98342.34;;;13.16;96.74
19576;BME280;41589;51.196;7.074;2023-11-19T01:42:59;98349.09;;;13.24;97.47
19576;BME280;41589;51.196;7.074;2023-11-19T01:48:02;98336.53;;;13.31;96.92
19576;BME280;41589;51.196;7.074;2023-11-19T01:53:07;98326.56;;;13.36;97.05
19576;BME280;41589;51.196;7.074;2023-11-19T01:58:07;98330.94;;;13.37;97.60
19576;BME280;41589;51.196;7.074;2023-11-19T02:03:08;98338.16;;;13.38;97.43
19576;BME280;41589;51.196;7.074;2023-11-19T02:08:08;98346.91;;;13.40;97.93
19576;BME280;41589;51.196;7.074;2023-11-19T02:13:09;98347.22;;;13.47;98.46
19576;BME280;41589;51.196;7.074;2023-11-19T02:18:20;98330.84;;;13.57;99.00
19576;BME280;41589;51.196;7.074;2023-11-19T02:23:22;98314.75;;;13.63;98.45
19576;BME280;41589;51.196;7.074;2023-11-19T02:28:23;98310.44;;;13.73;98.66
19576;BME280;41589;51.196;7.074;2023-11-19T02:33:23;98293.50;;;13.79;98.73
19576;BME280;41589;51.196;7.074;2023-11-19T02:38:25;98280.94;;;13.85;98.49
19576;BME280;41589;51.196;7.074;2023-11-19T02:43:26;98286.09;;;13.87;98.83
19576;BME280;41589;51.196;7.074;2023-11-19T02:48:26;98271.19;;;13.92;97.90
19576;BME280;41589;51.196;7.074;2023-11-19T02:53:26;98284.56;;;13.92;98.89
19576;BME280;41589;51.196;7.074;2023-11-19T02:58:29;98289.72;;;13.93;99.50
19576;BME280;41589;51.196;7.074;2023-11-19T03:03:29;98272.28;;;14.00;99.70
19576;BME280;41589;51.196;7.074;2023-11-19T03:08:38;98277.22;;;14.11;99.31
19576;BME280;41589;51.196;7.074;2023-11-19T03:13:38;98278.25;;;14.08;99.86
19576;BME280;41589;51.196;7.074;2023-11-19T03:18:39;98279.03;;;14.14;99.78
19576;BME280;41589;51.196;7.074;2023-11-19T03:23:39;98271.34;;;14.20;99.73
19576;BME280;41589;51.196;7.074;2023-11-19T03:28:40;98263.09;;;14.22;99.88
19576;BME280;41589;51.196;7.074;2023-11-19T03:33:40;98266.72;;;14.23;99.72
19576;BME280;41589;51.196;7.074;2023-11-19T03:38:41;98252.81;;;14.25;99.96
19576;BME280;41589;51.196;7.074;2023-11-19T03:43:42;98263.91;;;14.28;99.68
19576;BME280;41589;51.196;7.074;2023-11-19T03:48:43;98267.53;;;14.29;99.69
19576;BME280;41589;51.196;7.074;2023-11-19T03:53:46;98262.13;;;14.31;99.63
19576;BME280;41589;51.196;7.074;2023-11-19T03:58:47;98267.25;;;14.27;99.24
19576;BME280;41589;51.196;7.074;2023-11-19T04:03:47;98281.41;;;14.27;99.58
19576;BME280;41589;51.196;7.074;2023-11-19T04:08:48;98288.09;;;14.29;99.39
19576;BME280;41589;51.196;7.074;2023-11-19T04:13:48;98295.56;;;14.27;99.42
19576;BME280;41589;51.196;7.074;2023-11-19T04:18:48;98278.06;;;14.28;99.13
19576;BME280;41589;51.196;7.074;2023-11-19T04:23:49;98286.53;;;14.23;99.02
19576;BME280;41589;51.196;7.074;2023-11-19T04:28:50;98288.06;;;14.24;99.07
19576;BME280;41589;51.196;7.074;2023-11-19T04:33:52;98285.75;;;14.16;99.23
19576;BME280;41589;51.196;7.074;2023-11-19T04:38:55;98293.47;;;14.22;98.81
19576;BME280;41589;51.196;7.074;2023-11-19T04:43:55;98296.84;;;14.26;98.81
19576;BME280;41589;51.196;7.074;2023-11-19T04:48:56;98285.00;;;14.27;98.38
19576;BME280;41589;51.196;7.074;2023-11-19T04:53:56;98303.25;;;14.21;98.74
19576;BME280;41589;51.196;7.074;2023-11-19T04:58:57;98299.91;;;14.22;98.07
19576;BME280;41589;51.196;7.074;2023-11-19T05:03:57;98287.06;;;14.27;98.04
19576;BME280;41589;51.196;7.074;2023-11-19T05:09:00;98289.34;;;14.23;97.84
19576;BME280;41589;51.196;7.074;2023-11-19T05:14:04;98300.13;;;14.13;98.13
19576;BME280;41589;51.196;7.074;2023-11-19T05:19:05;98295.47;;;14.10;98.28
19576;BME280;41589;51.196;7.074;2023-11-19T05:24:05;98305.25;;;14.09;97.92
19576;BME280;41589;51.196;7.074;2023-11-19T05:29:06;98299.31;;;14.07;97.53
19576;BME280;41589;51.196;7.074;2023-11-19T05:34:06;98314.25;;;14.07;97.88
19576;BME280;41589;51.196;7.074;2023-11-19T05:39:07;98328.91;;;14.11;97.57
19576;BME280;41589;51.196;7.074;2023-11-19T05:44:07;98322.75;;;14.07;96.96
19576;BME280;41589;51.196;7.074;2023-11-19T05:49:08;98317.22;;;13.93;97.16
19576;BME280;41589;51.196;7.074;2023-11-19T05:54:09;98319.03;;;13.90;97.27
19576;BME280;41589;51.196;7.074;2023-11-19T05:59:10;98320.63;;;13.97;96.73
19576;BME280;41589;51.196;7.074;2023-11-19T06:04:15;98321.63;;;13.94;96.46
19576;BME280;41589;51.196;7.074;2023-11-19T06:09:16;98328.84;;;13.95;95.88
19576;BME280;41589;51.196;7.074;2023-11-19T06:14:18;98335.03;;;13.99;96.05
19576;BME280;41589;51.196;7.074;2023-11-19T06:19:19;98329.31;;;13.93;94.92
19576;BME280;41589;51.196;7.074;2023-11-19T06:24:19;98339.59;;;13.85;95.33
19576;BME280;41589;51.196;7.074;2023-11-19T06:29:20;98339.28;;;13.83;94.43
19576;BME280;41589;51.196;7.074;2023-11-19T06:34:20;98339.53;;;13.79;94.97
19576;BME280;41589;51.196;7.074;2023-11-19T06:39:20;98334.13;;;13.76;93.87
19576;BME280;41589;51.196;7.074;2023-11-19T06:44:21;98328.81;;;13.57;92.96
19576;BME280;41589;51.196;7.074;2023-11-19T06:49:21;98342.41;;;13.53;93.33
19576;BME280;41589;51.196;7.074;2023-11-19T06:54:22;98348.06;;;13.53;93.58
19576;BME280;41589;51.196;7.074;2023-11-19T06:59:22;98336.31;;;13.61;93.41
19576;BME280;41589;51.196;7.074;2023-11-19T07:04:23;98351.94;;;13.56;92.36
19576;BME280;41589;51.196;7.074;2023-11-19T07:09:23;98348.28;;;13.50;91.70
19576;BME280;41589;51.196;7.074;2023-11-19T07:14:23;98349.28;;;13.47;91.82
19576;BME280;41589;51.196;7.074;2023-11-19T07:19:24;98348.44;;;13.41;91.50
19576;BME280;41589;51.196;7.074;2023-11-19T07:24:24;98351.56;;;13.43;91.17
19576;BME280;41589;51.196;7.074;2023-11-19T07:29:24;98370.56;;;13.42;90.39
19576;BME280;41589;51.196;7.074;2023-11-19T07:34:25;98369.50;;;13.40;90.58
19576;BME280;41589;51.196;7.074;2023-11-19T07:39:25;98374.66;;;13.41;90.22
19576;BME280;41589;51.196;7.074;2023-11-19T07:44:25;98383.38;;;13.38;89.77
19576;BME280;41589;51.196;7.074;2023-11-19T07:49:26;98392.28;;;13.30;89.69
19576;BME280;41589;51.196;7.074;2023-11-19T07:54:26;98394.66;;;13.32;89.95
19576;BME280;41589;51.196;7.074;2023-11-19T07:59:27;98412.66;;;13.35;89.58
19576;BME280;41589;51.196;7.074;2023-11-19T08:04:27;98404.22;;;13.40;88.73
19576;BME280;41589;51.196;7.074;2023-11-19T08:09:27;98406.84;;;13.44;88.52
19576;BME280;41589;51.196;7.074;2023-11-19T08:14:28;98419.59;;;13.34;88.79
19576;BME280;41589;51.196;7.074;2023-11-19T08:19:28;98409.09;;;13.40;88.97
19576;BME280;41589;51.196;7.074;2023-11-19T08:24:28;98422.69;;;13.36;88.39
19576;BME280;41589;51.196;7.074;2023-11-19T08:29:29;98441.19;;;13.37;88.77
19576;BME280;41589;51.196;7.074;2023-11-19T08:34:29;98433.97;;;13.36;89.15
19576;BME280;41589;51.196;7.074;2023-11-19T08:39:29;98434.88;;;13.47;88.76
19576;BME280;41589;51.196;7.074;2023-11-19T08:44:30;98432.38;;;13.55;88.95
19576;BME280;41589;51.196;7.074;2023-11-19T08:49:31;98424.03;;;13.66;88.75
19576;BME280;41589;51.196;7.074;2023-11-19T08:54:31;98424.28;;;13.68;88.12
19576;BME280;41589;51.196;7.074;2023-11-19T08:59:33;98420.47;;;13.71;88.00
19576;BME280;41589;51.196;7.074;2023-11-19T09:04:33;98422.59;;;13.82;88.40
19576;BME280;41589;51.196;7.074;2023-11-19T09:09:33;98433.72;;;13.91;87.91
19576;BME280;41589;51.196;7.074;2023-11-19T09:14:36;98431.47;;;13.95;87.26
19576;BME280;41589;51.196;7.074;2023-11-19T09:19:36;98446.66;;;13.98;86.78
19576;BME280;41589;51.196;7.074;2023-11-19T09:24:36;98437.06;;;13.90;86.45
19576;BME280;41589;51.196;7.074;2023-11-19T09:29:36;98426.66;;;14.07;86.49
19576;BME280;41589;51.196;7.074;2023-11-19T09:34:37;98426.16;;;14.08;86.03
19576;BME280;41589;51.196;7.074;2023-11-19T09:39:37;98425.22;;;14.23;85.42
19576;BME280;41589;51.196;7.074;2023-11-19T09:44:38;98425.28;;;14.34;84.84
19576;BME280;41589;51.196;7.074;2023-11-19T09:49:39;98430.41;;;14.30;84.40
19576;BME280;41589;51.196;7.074;2023-11-19T09:54:40;98434.34;;;14.38;84.26
19576;BME280;41589;51.196;7.074;2023-11-19T09:59:40;98421.41;;;14.31;83.18
19576;BME280;41589;51.196;7.074;2023-11-19T10:04:42;98432.16;;;14.22;82.99
19576;BME280;41589;51.196;7.074;2023-11-19T10:09:43;98427.53;;;14.24;83.33
19576;BME280;41589;51.196;7.074;2023-11-19T10:14:45;98421.72;;;14.39;83.13
19576;BME280;41589;51.196;7.074;2023-11-19T10:19:46;98418.59;;;14.31;82.67
19576;BME280;41589;51.196;7.074;2023-11-19T10:24:46;98400.09;;;14.41;82.78
19576;BME280;41589;51.196;7.074;2023-11-19T10:29:47;98410.41;;;14.39;82.49
19576;BME280;41589;51.196;7.074;2023-11-19T10:34:48;98404.72;;;14.39;81.78
19576;BME280;41589;51.196;7.074;2023-11-19T10:39:52;98404.50;;;14.42;82.08
19576;BME280;41589;51.196;7.074;2023-11-19T10:44:56;98395.78;;;14.52;80.97
19576;BME280;41589;51.196;7.074;2023-11-19T10:49:56;98413.31;;;14.56;81.23
19576;BME280;41589;51.196;7.074;2023-11-19T10:55:00;98389.13;;;14.60;80.44
19576;BME280;41589;51.196;7.074;2023-11-19T11:00:03;98391.41;;;14.56;80.15
19576;BME280;41589;51.196;7.074;2023-11-19T11:05:12;98389.41;;;14.62;80.44
19576;BME280;41589;51.196;7.074;2023-11-19T11:10:14;98390.16;;;14.63;79.76
19576;BME280;41589;51.196;7.074;2023-11-19T11:15:18;98382.16;;;14.56;79.17
19576;BME280;41589;51.196;7.074;2023-11-19T11:20:19;98386.56;;;14.62;78.79
19576;BME280;41589;51.196;7.074;2023-11-19T11:30:42;98383.22;;;14.58;78.30
19576;BME280;41589;51.196;7.074;2023-11-19T11:36:06;98385.50;;;14.54;78.00
19576;BME280;41589;51.196;7.074;2023-11-19T11:41:20;98382.94;;;14.56;77.34
19576;BME280;41589;51.196;7.074;2023-11-19T11:57:01;98347.75;;;14.74;77.06
19576;BME280;41589;51.196;7.074;2023-11-19T12:02:03;98353.44;;;14.80;76.42
19576;BME280;41589;51.196;7.074;2023-11-19T12:07:07;98354.72;;;14.73;76.30
19576;BME280;41589;51.196;7.074;2023-11-19T12:22:35;98353.47;;;14.91;75.60
19576;BME280;41589;51.196;7.074;2023-11-19T12:27:39;98339.81;;;14.95;74.60
19576;BME280;41589;51.196;7.074;2023-11-19T12:32:41;98342.69;;;15.06;75.05
19576;BME280;41589;51.196;7.074;2023-11-19T12:37:45;98322.59;;;15.15;74.50
19576;BME280;41589;51.196;7.074;2023-11-19T12:42:46;98335.47;;;15.16;73.95
19576;BME280;41589;51.196;7.074;2023-11-19T12:47:47;98324.91;;;15.06;73.90
19576;BME280;41589;51.196;7.074;2023-11-19T12:52:56;98327.47;;;14.98;73.69
19576;BME280;41589;51.196;7.074;2023-11-19T12:57:57;98331.06;;;14.93;73.99
19576;BME280;41589;51.196;7.074;2023-11-19T13:02:59;98339.56;;;14.93;74.11
19576;BME280;41589;51.196;7.074;2023-11-19T13:08:04;98339.25;;;14.74;74.05
19576;BME280;41589;51.196;7.074;2023-11-19T13:13:08;98350.66;;;14.91;74.94
19576;BME280;41589;51.196;7.074;2023-11-19T13:18:09;98345.78;;;15.02;74.56
19576;BME280;41589;51.196;7.074;2023-11-19T13:23:10;98332.88;;;14.90;74.60
19576;BME280;41589;51.196;7.074;2023-11-19T13:28:10;98339.81;;;14.95;74.88
19576;BME280;41589;51.196;7.074;2023-11-19T13:33:11;98335.47;;;14.99;74.20
19576;BME280;41589;51.196;7.074;2023-11-19T13:38:13;98335.44;;;14.88;74.67
19576;BME280;41589;51.196;7.074;2023-11-19T13:43:13;98343.16;;;14.88;74.26
19576;BME280;41589;51.196;7.074;2023-11-19T13:48:14;98339.78;;;14.72;74.26
19576;BME280;41589;51.196;7.074;2023-11-19T13:53:14;98335.94;;;14.87;74.24
19576;BME280;41589;51.196;7.074;2023-11-19T13:58:14;98331.81;;;14.88;74.62
19576;BME280;41589;51.196;7.074;2023-11-19T14:03:16;98334.13;;;14.84;74.30
19576;BME280;41589;51.196;7.074;2023-11-19T14:08:16;98323.28;;;14.77;74.79
19576;BME280;41589;51.196;7.074;2023-11-19T14:13:16;98323.81;;;14.75;74.16
19576;BME280;41589;51.196;7.074;2023-11-19T14:18:17;98315.50;;;14.66;75.09
19576;BME280;41589;51.196;7.074;2023-11-19T14:23:18;98316.25;;;14.55;75.06
19576;BME280;41589;51.196;7.074;2023-11-19T14:28:18;98324.00;;;14.60;75.24
19576;BME280;41589;51.196;7.074;2023-11-19T14:33:19;98330.63;;;14.46;75.78
19576;BME280;41589;51.196;7.074;2023-11-19T14:38:20;98324.44;;;14.36;76.64
19576;BME280;41589;51.196;7.074;2023-11-19T14:43:20;98319.25;;;14.29;77.33
19576;BME280;41589;51.196;7.074;2023-11-19T14:48:21;98326.41;;;14.25;77.96
19576;BME280;41589;51.196;7.074;2023-11-19T14:53:21;98323.06;;;14.21;78.64
19576;BME280;41589;51.196;7.074;2023-11-19T14:58:22;98326.66;;;14.15;78.73
19576;BME280;41589;51.196;7.074;2023-11-19T15:03:23;98321.69;;;14.05;79.16
19576;BME280;41589;51.196;7.074;2023-11-19T15:08:23;98319.88;;;14.02;79.63
19576;BME280;41589;51.196;7.074;2023-11-19T15:13:24;98311.56;;;13.87;80.17
19576;BME280;41589;51.196;7.074;2023-11-19T15:18:24;98314.06;;;13.79;80.71
19576;BME280;41589;51.196;7.074;2023-11-19T15:23:24;98319.47;;;13.77;80.91
19576;BME280;41589;51.196;7.074;2023-11-19T15:28:25;98322.22;;;13.66;80.65
19576;BME280;41589;51.196;7.074;2023-11-19T15:33:25;98322.13;;;13.55;81.29
19576;BME280;41589;51.196;7.074;2023-11-19T15:38:26;98328.31;;;13.59;81.83
19576;BME280;41589;51.196;7.074;2023-11-19T15:43:26;98320.56;;;13.54;81.71
19576;BME280;41589;51.196;7.074;2023-11-19T15:48:26;98326.66;;;13.47;81.67
19576;BME280;41589;51.196;7.074;2023-11-19T15:53:27;98310.38;;;13.36;82.30
19576;BME280;41589;51.196;7.074;2023-11-19T15:58:27;98314.75;;;13.37;82.14
19576;BME280;41589;51.196;7.074;2023-11-19T16:03:27;98309.13;;;13.37;82.59
19576;BME280;41589;51.196;7.074;2023-11-19T16:08:30;98307.06;;;13.38;82.42
19576;BME280;41589;51.196;7.074;2023-11-19T16:13:30;98300.41;;;13.41;82.74
19576;BME280;41589;51.196;7.074;2023-11-19T16:18:30;98297.31;;;13.39;82.51
19576;BME280;41589;51.196;7.074;2023-11-19T16:23:32;98295.75;;;13.38;82.78
19576;BME280;41589;51.196;7.074;2023-11-19T16:28:32;98306.78;;;13.36;82.31
19576;BME280;41589;51.196;7.074;2023-11-19T16:33:35;98302.63;;;13.31;82.75
19576;BME280;41589;51.196;7.074;2023-11-19T16:38:35;98295.94;;;13.28;82.98
19576;BME280;41589;51.196;7.074;2023-11-19T16:43:35;98308.53;;;13.27;83.12
19576;BME280;41589;51.196;7.074;2023-11-19T16:48:36;98304.41;;;13.28;83.74
19576;BME280;41589;51.196;7.074;2023-11-19T16:53:36;98313.41;;;13.27;83.76
19576;BME280;41589;51.196;7.074;2023-11-19T16:58:36;98309.28;;;13.28;83.71
19576;BME280;41589;51.196;7.074;2023-11-19T17:03:37;98308.56;;;13.33;83.40
19576;BME280;41589;51.196;7.074;2023-11-19T17:08:38;98311.63;;;13.29;83.80
19576;BME280;41589;51.196;7.074;2023-11-19T17:13:38;98313.94;;;13.31;83.11
19576;BME280;41589;51.196;7.074;2023-11-19T17:18:38;98313.91;;;13.25;83.32
19576;BME280;41589;51.196;7.074;2023-11-19T17:23:39;98327.03;;;13.28;83.65
19576;BME280;41589;51.196;7.074;2023-11-19T17:28:40;98331.34;;;13.24;84.08
19576;BME280;41589;51.196;7.074;2023-11-19T17:33:41;98315.38;;;13.21;83.90
19576;BME280;41589;51.196;7.074;2023-11-19T17:38:41;98324.69;;;13.27;83.69
19576;BME280;41589;51.196;7.074;2023-11-19T17:43:41;98329.81;;;13.23;83.60
19576;BME280;41589;51.196;7.074;2023-11-19T17:48:42;98315.88;;;13.19;83.83
19576;BME280;41589;51.196;7.074;2023-11-19T17:53:42;98308.53;;;13.27;84.30
19576;BME280;41589;51.196;7.074;2023-11-19T17:58:43;98306.19;;;13.26;84.27
19576;BME280;41589;51.196;7.074;2023-11-19T18:03:43;98309.13;;;13.37;84.13
19576;BME280;41589;51.196;7.074;2023-11-19T18:08:44;98321.63;;;13.30;83.40
19576;BME280;41589;51.196;7.074;2023-11-19T18:13:45;98314.91;;;13.22;83.55
19576;BME280;41589;51.196;7.074;2023-11-19T18:18:45;98302.50;;;13.14;83.81
19576;BME280;41589;51.196;7.074;2023-11-19T18:23:46;98296.38;;;13.21;83.88
19576;BME280;41589;51.196;7.074;2023-11-19T18:28:46;98295.91;;;13.23;83.39
19576;BME280;41589;51.196;7.074;2023-11-19T18:33:47;98305.66;;;13.22;83.42
19576;BME280;41589;51.196;7.074;2023-11-19T18:38:47;98301.56;;;13.23;83.25
19576;BME280;41589;51.196;7.074;2023-11-19T18:43:47;98312.09;;;13.22;82.58
19576;BME280;41589;51.196;7.074;2023-11-19T18:48:48;98325.00;;;13.03;83.99
19576;BME280;41589;51.196;7.074;2023-11-19T18:53:48;98308.59;;;13.07;84.49
19576;BME280;41589;51.196;7.074;2023-11-19T18:58:49;98314.00;;;13.11;84.51
19576;BME280;41589;51.196;7.074;2023-11-19T19:03:49;98304.22;;;13.06;85.03
19576;BME280;41589;51.196;7.074;2023-11-19T19:08:49;98308.31;;;13.05;85.30
19576;BME280;41589;51.196;7.074;2023-11-19T19:13:50;98306.53;;;13.08;85.08
19576;BME280;41589;51.196;7.074;2023-11-19T19:18:51;98312.31;;;12.93;85.41
19576;BME280;41589;51.196;7.074;2023-11-19T19:23:54;98300.19;;;12.87;85.99
19576;BME280;41589;51.196;7.074;2023-11-19T19:28:55;98302.22;;;12.86;86.10
19576;BME280;41589;51.196;7.074;2023-11-19T19:33:55;98310.66;;;12.81;86.88
19576;BME280;41589;51.196;7.074;2023-11-19T19:38:58;98307.22;;;12.71;87.68
19576;BME280;41589;51.196;7.074;2023-11-19T19:44:00;98294.06;;;12.68;87.90
19576;BME280;41589;51.196;7.074;2023-11-19T19:49:00;98288.44;;;12.68;88.83
19576;BME280;41589;51.196;7.074;2023-11-19T19:54:00;98296.44;;;12.69;88.95
19576;BME280;41589;51.196;7.074;2023-11-19T19:59:01;98298.19;;;12.67;89.62
19576;BME280;41589;51.196;7.074;2023-11-19T20:04:01;98295.69;;;12.75;89.14
19576;BME280;41589;51.196;7.074;2023-11-19T20:09:03;98281.22;;;12.67;89.93
19576;BME280;41589;51.196;7.074;2023-11-19T20:14:04;98296.13;;;12.67;90.40
19576;BME280;41589;51.196;7.074;2023-11-19T20:19:04;98290.78;;;12.69;90.46
19576;BME280;41589;51.196;7.074;2023-11-19T20:24:05;98291.97;;;12.63;90.89
19576;BME280;41589;51.196;7.074;2023-11-19T20:29:05;98293.81;;;12.66;91.12
19576;BME280;41589;51.196;7.074;2023-11-19T20:34:06;98294.81;;;12.63;91.08
19576;BME280;41589;51.196;7.074;2023-11-19T20:39:07;98293.53;;;12.64;91.43
19576;BME280;41589;51.196;7.074;2023-11-19T20:44:07;98296.91;;;12.68;91.29
19576;BME280;41589;51.196;7.074;2023-11-19T20:49:08;98299.94;;;12.64;91.07
19576;BME280;41589;51.196;7.074;2023-11-19T20:54:08;98306.66;;;12.67;91.87
19576;BME280;41589;51.196;7.074;2023-11-19T20:59:09;98311.00;;;12.68;92.11
19576;BME280;41589;51.196;7.074;2023-11-19T21:04:10;98304.91;;;12.69;92.11
19576;BME280;41589;51.196;7.074;2023-11-19T21:09:11;98306.38;;;12.65;91.94
19576;BME280;41589;51.196;7.074;2023-11-19T21:14:11;98316.63;;;12.62;92.30
19576;BME280;41589;51.196;7.074;2023-11-19T21:19:13;98311.50;;;12.66;93.06
19576;BME280;41589;51.196;7.074;2023-11-19T21:24:13;98312.25;;;12.61;92.93
19576;BME280;41589;51.196;7.074;2023-11-19T21:29:14;98315.38;;;12.69;93.10
19576;BME280;41589;51.196;7.074;2023-11-19T21:34:14;98314.47;;;12.78;93.26
19576;BME280;41589;51.196;7.074;2023-11-19T21:39:14;98304.66;;;12.73;92.81
19576;BME280;41589;51.196;7.074;2023-11-19T21:44:15;98299.28;;;12.75;92.69
19576;BME280;41589;51.196;7.074;2023-11-19T21:49:15;98299.25;;;12.69;92.91
19576;BME280;41589;51.196;7.074;2023-11-19T21:54:15;98297.91;;;12.65;92.99
19576;BME280;41589;51.196;7.074;2023-11-19T21:59:16;98306.44;;;12.70;92.81
19576;BME280;41589;51.196;7.074;2023-11-19T22:04:16;98311.59;;;12.72;93.34
19576;BME280;41589;51.196;7.074;2023-11-19T22:09:16;98310.81;;;12.71;93.41
19576;BME280;41589;51.196;7.074;2023-11-19T22:14:17;98319.59;;;12.79;93.72
19576;BME280;41589;51.196;7.074;2023-11-19T22:19:17;98322.16;;;12.77;93.26
19576;BME280;41589;51.196;7.074;2023-11-19T22:24:18;98321.47;;;12.82;93.18
19576;BME280;41589;51.196;7.074;2023-11-19T22:29:18;98324.44;;;12.73;93.10
19576;BME280;41589;51.196;7.074;2023-11-19T22:34:18;98318.50;;;12.71;93.84
19576;BME280;41589;51.196;7.074;2023-11-19T22:39:19;98323.16;;;12.74;94.31
19576;BME280;41589;51.196;7.074;2023-11-19T22:44:19;98330.34;;;12.75;93.98
19576;BME280;41589;51.196;7.074;2023-11-19T22:49:19;98324.22;;;12.77;94.07
19576;BME280;41589;51.196;7.074;2023-11-19T22:54:20;98322.94;;;12.78;93.86
19576;BME280;41589;51.196;7.074;2023-11-19T22:59:21;98335.78;;;12.79;94.41
19576;BME280;41589;51.196;7.074;2023-11-19T23:04:21;98329.84;;;12.77;93.96
19576;BME280;41589;51.196;7.074;2023-11-19T23:09:23;98336.00;;;12.75;94.29
19576;BME280;41589;51.196;7.074;2023-11-19T23:14:23;98331.41;;;12.78;94.25
19576;BME280;41589;51.196;7.074;2023-11-19T23:19:24;98339.38;;;12.79;94.03
19576;BME280;41589;51.196;7.074;2023-11-19T23:24:24;98327.81;;;12.77;94.22
19576;BME280;41589;51.196;7.074;2023-11-19T23:29:26;98340.09;;;12.74;94.36
19576;BME280;41589;51.196;7.074;2023-11-19T23:34:26;98328.31;;;12.76;94.30
19576;BME280;41589;51.196;7.074;2023-11-19T23:39:27;98331.13;;;12.76;94.37
19576;BME280;41589;51.196;7.074;2023-11-19T23:44:28;98323.16;;;12.74;94.58
19576;BME280;41589;51.196;7.074;2023-11-19T23:49:29;98324.22;;;12.77;93.73
19576;BME280;41589;51.196;7.074;2023-11-19T23:54:33;98325.72;;;12.72;94.49
19576;BME280;41589;51.196;7.074;2023-11-19T23:59:33;98323.44;;;12.76;94.26
